sensor_id;sensor_type;location;lat;lon;timestamp;P1;durP1;ratioP1;P2;durP2;ratioP2
70967;SDS011;58629;48.808;8.820;2023-06-22T00:00:55;8.57;;;6.50;;
70967;SDS011;58629;48.808;8.820;2023-06-22T00:03:21;7.10;;;5.80;;
70967;SDS011;58629;48.808;8.820;2023-06-22T00:05:48;6.15;;;5.38;;
70967;SDS011;58629;48.808;8.820;2023-06-22T00:08:14;5.85;;;4.95;;
70967;SDS011;58629;48.808;8.820;2023-06-22T00:10:40;5.10;;;4.27;;
70967;SDS011;58629;48.808;8.820;2023-06-22T00:13:08;4.85;;;4.35;;
70967;SDS011;58629;48.808;8.820;2023-06-22T00:15:34;6.53;;;4.93;;
70967;SDS011;58629;48.808;8.820;2023-06-22T00:18:00;6.53;;;4.38;;
70967;SDS011;58629;48.808;8.820;2023-06-22T00:20:26;5.00;;;4.00;;
70967;SDS011;58629;48.808;8.820;2023-06-22T00:22:53;4.22;;;3.60;;
70967;SDS011;58629;48.808;8.820;2023-06-22T00:25:19;4.47;;;4.07;;
70967;SDS011;58629;48.808;8.820;2023-06-22T00:27:44;5.13;;;4.63;;
70967;SDS011;58629;48.808;8.820;2023-06-22T00:30:09;4.43;;;3.70;;
70967;SDS011;58629;48.808;8.820;2023-06-22T00:32:35;4.82;;;4.07;;
70967;SDS011;58629;48.808;8.820;2023-06-22T00:35:00;4.67;;;3.77;;
70967;SDS011;58629;48.808;8.820;2023-06-22T00:37:26;5.37;;;4.00;;
70967;SDS011;58629;48.808;8.820;2023-06-22T00:39:54;4.30;;;3.90;;
70967;SDS011;58629;48.808;8.820;2023-06-22T00:42:20;11.67;;;8.07;;
70967;SDS011;58629;48.808;8.820;2023-06-22T00:44:46;12.35;;;8.02;;
70967;SDS011;58629;48.808;8.820;2023-06-22T00:47:11;10.97;;;8.07;;
70967;SDS011;58629;48.808;8.820;2023-06-22T00:49:39;12.35;;;8.40;;
70967;SDS011;58629;48.808;8.820;2023-06-22T00:52:05;12.87;;;9.07;;
70967;SDS011;58629;48.808;8.820;2023-06-22T00:54:34;12.35;;;8.45;;
70967;SDS011;58629;48.808;8.820;2023-06-22T00:57:01;9.23;;;7.82;;
70967;SDS011;58629;48.808;8.820;2023-06-22T00:59:27;8.88;;;6.45;;
70967;SDS011;58629;48.808;8.820;2023-06-22T01:01:52;7.33;;;6.10;;
70967;SDS011;58629;48.808;8.820;2023-06-22T01:04:18;7.88;;;5.70;;
70967;SDS011;58629;48.808;8.820;2023-06-22T01:07:00;7.40;;;5.50;;
70967;SDS011;58629;48.808;8.820;2023-06-22T01:09:41;6.70;;;5.38;;
70967;SDS011;58629;48.808;8.820;2023-06-22T01:12:17;5.13;;;4.53;;
70967;SDS011;58629;48.808;8.820;2023-06-22T01:14:47;5.07;;;4.47;;
70967;SDS011;58629;48.808;8.820;2023-06-22T01:17:23;4.80;;;4.28;;
70967;SDS011;58629;48.808;8.820;2023-06-22T01:19:51;4.35;;;3.80;;
70967;SDS011;58629;48.808;8.820;2023-06-22T01:22:22;4.15;;;3.72;;
70967;SDS011;58629;48.808;8.820;2023-06-22T01:30:21;4.03;;;3.63;;
70967;SDS011;58629;48.808;8.820;2023-06-22T01:32:51;12.18;;;8.40;;
70967;SDS011;58629;48.808;8.820;2023-06-22T01:35:19;13.35;;;8.20;;
70967;SDS011;58629;48.808;8.820;2023-06-22T01:37:46;9.27;;;7.22;;
70967;SDS011;58629;48.808;8.820;2023-06-22T01:40:12;11.77;;;8.05;;
70967;SDS011;58629;48.808;8.820;2023-06-22T01:42:38;12.27;;;8.20;;
70967;SDS011;58629;48.808;8.820;2023-06-22T01:45:04;9.02;;;6.53;;
70967;SDS011;58629;48.808;8.820;2023-06-22T01:47:32;6.73;;;5.40;;
70967;SDS011;58629;48.808;8.820;2023-06-22T01:49:58;7.72;;;5.50;;
70967;SDS011;58629;48.808;8.820;2023-06-22T01:52:24;7.95;;;5.30;;
70967;SDS011;58629;48.808;8.820;2023-06-22T01:54:49;5.70;;;5.10;;
70967;SDS011;58629;48.808;8.820;2023-06-22T01:57:15;6.43;;;5.60;;
70967;SDS011;58629;48.808;8.820;2023-06-22T02:02:09;6.78;;;5.60;;
70967;SDS011;58629;48.808;8.820;2023-06-22T02:07:11;11.90;;;7.60;;
70967;SDS011;58629;48.808;8.820;2023-06-22T02:09:39;6.67;;;5.83;;
70967;SDS011;58629;48.808;8.820;2023-06-22T02:12:08;5.85;;;5.00;;
70967;SDS011;58629;48.808;8.820;2023-06-22T02:14:37;5.72;;;5.03;;
70967;SDS011;58629;48.808;8.820;2023-06-22T02:17:04;5.72;;;4.88;;
70967;SDS011;58629;48.808;8.820;2023-06-22T02:19:32;5.57;;;4.68;;
70967;SDS011;58629;48.808;8.820;2023-06-22T02:22:01;4.90;;;4.33;;
70967;SDS011;58629;48.808;8.820;2023-06-22T02:24:26;9.02;;;7.00;;
70967;SDS011;58629;48.808;8.820;2023-06-22T02:26:52;5.80;;;5.00;;
70967;SDS011;58629;48.808;8.820;2023-06-22T02:29:17;6.67;;;5.03;;
70967;SDS011;58629;48.808;8.820;2023-06-22T02:31:42;5.70;;;4.87;;
70967;SDS011;58629;48.808;8.820;2023-06-22T02:34:08;15.43;;;8.27;;
70967;SDS011;58629;48.808;8.820;2023-06-22T02:36:33;14.57;;;9.50;;
70967;SDS011;58629;48.808;8.820;2023-06-22T02:38:59;12.37;;;9.17;;
70967;SDS011;58629;48.808;8.820;2023-06-22T02:41:26;11.23;;;7.30;;
70967;SDS011;58629;48.808;8.820;2023-06-22T02:43:52;9.38;;;6.70;;
70967;SDS011;58629;48.808;8.820;2023-06-22T02:46:17;7.67;;;5.80;;
70967;SDS011;58629;48.808;8.820;2023-06-22T02:48:42;6.63;;;5.70;;
70967;SDS011;58629;48.808;8.820;2023-06-22T02:51:08;16.20;;;8.68;;
70967;SDS011;58629;48.808;8.820;2023-06-22T02:53:33;15.13;;;8.83;;
70967;SDS011;58629;48.808;8.820;2023-06-22T02:56:00;11.77;;;7.20;;
70967;SDS011;58629;48.808;8.820;2023-06-22T02:58:30;7.70;;;6.18;;
70967;SDS011;58629;48.808;8.820;2023-06-22T03:00:58;6.70;;;5.85;;
70967;SDS011;58629;48.808;8.820;2023-06-22T03:03:29;7.88;;;6.07;;
70967;SDS011;58629;48.808;8.820;2023-06-22T03:05:54;11.10;;;7.10;;
70967;SDS011;58629;48.808;8.820;2023-06-22T03:08:20;6.60;;;5.40;;
70967;SDS011;58629;48.808;8.820;2023-06-22T03:10:45;6.03;;;5.20;;
70967;SDS011;58629;48.808;8.820;2023-06-22T03:13:10;7.30;;;5.40;;
70967;SDS011;58629;48.808;8.820;2023-06-22T03:15:36;6.00;;;5.03;;
70967;SDS011;58629;48.808;8.820;2023-06-22T03:18:01;5.20;;;4.47;;
70967;SDS011;58629;48.808;8.820;2023-06-22T03:20:26;5.10;;;4.20;;
70967;SDS011;58629;48.808;8.820;2023-06-22T03:22:58;4.60;;;3.80;;
70967;SDS011;58629;48.808;8.820;2023-06-22T03:25:23;4.40;;;3.73;;
70967;SDS011;58629;48.808;8.820;2023-06-22T03:27:48;5.00;;;4.07;;
70967;SDS011;58629;48.808;8.820;2023-06-22T03:30:14;3.85;;;3.47;;
70967;SDS011;58629;48.808;8.820;2023-06-22T03:32:39;4.80;;;3.83;;
70967;SDS011;58629;48.808;8.820;2023-06-22T03:35:05;3.80;;;3.40;;
70967;SDS011;58629;48.808;8.820;2023-06-22T03:37:31;3.60;;;3.10;;
70967;SDS011;58629;48.808;8.820;2023-06-22T03:39:56;3.50;;;3.10;;
70967;SDS011;58629;48.808;8.820;2023-06-22T03:42:22;3.10;;;2.70;;
70967;SDS011;58629;48.808;8.820;2023-06-22T03:44:47;3.27;;;2.93;;
70967;SDS011;58629;48.808;8.820;2023-06-22T03:47:12;7.63;;;5.43;;
70967;SDS011;58629;48.808;8.820;2023-06-22T03:49:38;4.80;;;3.85;;
70967;SDS011;58629;48.808;8.820;2023-06-22T03:52:04;4.17;;;3.60;;
70967;SDS011;58629;48.808;8.820;2023-06-22T03:54:30;5.13;;;4.13;;
70967;SDS011;58629;48.808;8.820;2023-06-22T03:56:56;4.10;;;3.60;;
70967;SDS011;58629;48.808;8.820;2023-06-22T03:59:22;3.97;;;3.45;;
70967;SDS011;58629;48.808;8.820;2023-06-22T04:01:48;5.07;;;4.20;;
70967;SDS011;58629;48.808;8.820;2023-06-22T04:04:13;6.07;;;4.90;;
70967;SDS011;58629;48.808;8.820;2023-06-22T04:06:39;5.05;;;3.90;;
70967;SDS011;58629;48.808;8.820;2023-06-22T04:09:05;4.63;;;3.77;;
70967;SDS011;58629;48.808;8.820;2023-06-22T04:11:31;4.38;;;3.78;;
70967;SDS011;58629;48.808;8.820;2023-06-22T04:13:57;4.00;;;3.57;;
70967;SDS011;58629;48.808;8.820;2023-06-22T04:16:22;4.20;;;3.50;;
70967;SDS011;58629;48.808;8.820;2023-06-22T04:18:47;4.03;;;3.63;;
70967;SDS011;58629;48.808;8.820;2023-06-22T04:21:13;4.17;;;3.50;;
70967;SDS011;58629;48.808;8.820;2023-06-22T04:23:38;3.67;;;3.20;;
70967;SDS011;58629;48.808;8.820;2023-06-22T04:26:04;4.00;;;3.30;;
70967;SDS011;58629;48.808;8.820;2023-06-22T04:28:29;3.70;;;3.30;;
70967;SDS011;58629;48.808;8.820;2023-06-22T04:30:55;4.57;;;3.60;;
70967;SDS011;58629;48.808;8.820;2023-06-22T04:33:23;3.57;;;3.20;;
70967;SDS011;58629;48.808;8.820;2023-06-22T04:35:48;4.40;;;3.55;;
70967;SDS011;58629;48.808;8.820;2023-06-22T04:38:13;3.67;;;3.30;;
70967;SDS011;58629;48.808;8.820;2023-06-22T04:40:39;3.77;;;3.20;;
70967;SDS011;58629;48.808;8.820;2023-06-22T04:43:05;3.67;;;3.20;;
70967;SDS011;58629;48.808;8.820;2023-06-22T04:45:31;3.45;;;2.83;;
70967;SDS011;58629;48.808;8.820;2023-06-22T04:48:02;3.40;;;2.92;;
70967;SDS011;58629;48.808;8.820;2023-06-22T04:50:28;2.90;;;2.60;;
70967;SDS011;58629;48.808;8.820;2023-06-22T04:52:53;3.37;;;3.07;;
70967;SDS011;58629;48.808;8.820;2023-06-22T04:55:19;6.53;;;4.10;;
70967;SDS011;58629;48.808;8.820;2023-06-22T04:57:45;4.53;;;3.60;;
70967;SDS011;58629;48.808;8.820;2023-06-22T05:00:14;4.20;;;3.50;;
70967;SDS011;58629;48.808;8.820;2023-06-22T05:02:42;3.90;;;3.50;;
70967;SDS011;58629;48.808;8.820;2023-06-22T05:05:10;4.97;;;3.80;;
70967;SDS011;58629;48.808;8.820;2023-06-22T05:07:38;6.00;;;4.10;;
70967;SDS011;58629;48.808;8.820;2023-06-22T05:10:07;5.30;;;4.22;;
70967;SDS011;58629;48.808;8.820;2023-06-22T05:12:33;5.27;;;4.37;;
70967;SDS011;58629;48.808;8.820;2023-06-22T05:14:59;5.43;;;4.05;;
70967;SDS011;58629;48.808;8.820;2023-06-22T05:17:26;5.65;;;4.30;;
70967;SDS011;58629;48.808;8.820;2023-06-22T05:19:51;7.63;;;5.07;;
70967;SDS011;58629;48.808;8.820;2023-06-22T05:22:17;7.07;;;5.70;;
70967;SDS011;58629;48.808;8.820;2023-06-22T05:24:43;6.57;;;4.40;;
70967;SDS011;58629;48.808;8.820;2023-06-22T05:27:09;5.47;;;4.73;;
70967;SDS011;58629;48.808;8.820;2023-06-22T05:29:34;6.30;;;4.75;;
70967;SDS011;58629;48.808;8.820;2023-06-22T05:32:01;5.30;;;4.13;;
70967;SDS011;58629;48.808;8.820;2023-06-22T05:34:26;4.33;;;3.93;;
70967;SDS011;58629;48.808;8.820;2023-06-22T05:36:52;4.00;;;3.43;;
70967;SDS011;58629;48.808;8.820;2023-06-22T05:39:17;4.00;;;3.60;;
70967;SDS011;58629;48.808;8.820;2023-06-22T05:41:42;3.90;;;3.50;;
70967;SDS011;58629;48.808;8.820;2023-06-22T05:44:09;5.50;;;4.45;;
70967;SDS011;58629;48.808;8.820;2023-06-22T05:46:34;5.03;;;4.33;;
70967;SDS011;58629;48.808;8.820;2023-06-22T05:49:00;5.60;;;4.53;;
70967;SDS011;58629;48.808;8.820;2023-06-22T05:51:25;5.73;;;4.70;;
70967;SDS011;58629;48.808;8.820;2023-06-22T05:53:50;7.53;;;4.67;;
70967;SDS011;58629;48.808;8.820;2023-06-22T05:56:16;5.50;;;4.65;;
70967;SDS011;58629;48.808;8.820;2023-06-22T05:58:42;5.43;;;4.77;;
70967;SDS011;58629;48.808;8.820;2023-06-22T06:01:07;5.93;;;4.90;;
70967;SDS011;58629;48.808;8.820;2023-06-22T06:03:32;6.53;;;5.45;;
70967;SDS011;58629;48.808;8.820;2023-06-22T06:05:58;8.13;;;5.97;;
70967;SDS011;58629;48.808;8.820;2023-06-22T06:08:23;6.97;;;5.90;;
70967;SDS011;58629;48.808;8.820;2023-06-22T06:10:49;7.90;;;5.57;;
70967;SDS011;58629;48.808;8.820;2023-06-22T06:13:14;6.73;;;5.23;;
70967;SDS011;58629;48.808;8.820;2023-06-22T06:15:39;6.07;;;5.23;;
70967;SDS011;58629;48.808;8.820;2023-06-22T06:18:05;5.93;;;4.80;;
70967;SDS011;58629;48.808;8.820;2023-06-22T06:20:31;6.23;;;4.27;;
70967;SDS011;58629;48.808;8.820;2023-06-22T06:22:57;7.28;;;4.65;;
70967;SDS011;58629;48.808;8.820;2023-06-22T06:25:22;5.65;;;4.90;;
70967;SDS011;58629;48.808;8.820;2023-06-22T06:27:51;7.53;;;5.43;;
70967;SDS011;58629;48.808;8.820;2023-06-22T06:30:17;5.93;;;4.95;;
70967;SDS011;58629;48.808;8.820;2023-06-22T06:32:43;6.57;;;5.20;;
70967;SDS011;58629;48.808;8.820;2023-06-22T06:35:11;5.25;;;4.65;;
70967;SDS011;58629;48.808;8.820;2023-06-22T06:37:41;6.45;;;5.03;;
70967;SDS011;58629;48.808;8.820;2023-06-22T06:40:08;5.25;;;4.45;;
70967;SDS011;58629;48.808;8.820;2023-06-22T06:42:35;5.90;;;4.75;;
70967;SDS011;58629;48.808;8.820;2023-06-22T06:45:03;6.50;;;4.73;;
70967;SDS011;58629;48.808;8.820;2023-06-22T06:47:29;6.32;;;4.78;;
70967;SDS011;58629;48.808;8.820;2023-06-22T06:49:54;6.70;;;5.00;;
70967;SDS011;58629;48.808;8.820;2023-06-22T06:52:20;5.73;;;5.10;;
70967;SDS011;58629;48.808;8.820;2023-06-22T06:54:45;7.32;;;5.50;;
70967;SDS011;58629;48.808;8.820;2023-06-22T06:57:10;7.50;;;4.97;;
70967;SDS011;58629;48.808;8.820;2023-06-22T06:59:38;5.93;;;4.93;;
70967;SDS011;58629;48.808;8.820;2023-06-22T07:02:04;7.13;;;5.30;;
70967;SDS011;58629;48.808;8.820;2023-06-22T07:04:29;6.70;;;4.60;;
70967;SDS011;58629;48.808;8.820;2023-06-22T07:06:55;6.97;;;4.90;;
70967;SDS011;58629;48.808;8.820;2023-06-22T07:09:20;5.87;;;4.20;;
70967;SDS011;58629;48.808;8.820;2023-06-22T07:11:45;5.67;;;4.37;;
70967;SDS011;58629;48.808;8.820;2023-06-22T07:14:11;7.00;;;4.67;;
70967;SDS011;58629;48.808;8.820;2023-06-22T07:16:36;4.80;;;4.13;;
70967;SDS011;58629;48.808;8.820;2023-06-22T07:19:01;7.30;;;4.47;;
70967;SDS011;58629;48.808;8.820;2023-06-22T07:21:27;6.00;;;4.25;;
70967;SDS011;58629;48.808;8.820;2023-06-22T07:23:52;5.60;;;4.40;;
70967;SDS011;58629;48.808;8.820;2023-06-22T07:26:19;6.05;;;4.18;;
70967;SDS011;58629;48.808;8.820;2023-06-22T07:28:44;6.10;;;4.40;;
70967;SDS011;58629;48.808;8.820;2023-06-22T07:31:09;6.13;;;4.30;;
70967;SDS011;58629;48.808;8.820;2023-06-22T07:33:35;6.77;;;4.33;;
70967;SDS011;58629;48.808;8.820;2023-06-22T07:36:00;5.73;;;4.20;;
70967;SDS011;58629;48.808;8.820;2023-06-22T07:38:27;5.18;;;4.13;;
70967;SDS011;58629;48.808;8.820;2023-06-22T07:40:53;6.53;;;4.20;;
70967;SDS011;58629;48.808;8.820;2023-06-22T07:43:18;6.33;;;4.00;;
70967;SDS011;58629;48.808;8.820;2023-06-22T07:45:50;6.88;;;3.90;;
70967;SDS011;58629;48.808;8.820;2023-06-22T07:48:22;6.38;;;4.15;;
70967;SDS011;58629;48.808;8.820;2023-06-22T07:50:48;6.93;;;4.30;;
70967;SDS011;58629;48.808;8.820;2023-06-22T07:53:14;5.57;;;3.90;;
70967;SDS011;58629;48.808;8.820;2023-06-22T07:55:39;7.45;;;4.32;;
70967;SDS011;58629;48.808;8.820;2023-06-22T07:58:04;5.73;;;4.03;;
70967;SDS011;58629;48.808;8.820;2023-06-22T08:00:30;7.57;;;4.40;;
70967;SDS011;58629;48.808;8.820;2023-06-22T08:02:55;6.17;;;4.23;;
70967;SDS011;58629;48.808;8.820;2023-06-22T08:05:21;5.20;;;3.67;;
70967;SDS011;58629;48.808;8.820;2023-06-22T08:07:46;4.87;;;3.80;;
70967;SDS011;58629;48.808;8.820;2023-06-22T08:10:12;5.33;;;3.70;;
70967;SDS011;58629;48.808;8.820;2023-06-22T08:12:38;5.28;;;4.22;;
70967;SDS011;58629;48.808;8.820;2023-06-22T08:15:05;5.70;;;4.07;;
70967;SDS011;58629;48.808;8.820;2023-06-22T08:17:31;4.93;;;3.93;;
70967;SDS011;58629;48.808;8.820;2023-06-22T08:19:56;7.85;;;4.47;;
70967;SDS011;58629;48.808;8.820;2023-06-22T08:22:22;6.67;;;4.60;;
70967;SDS011;58629;48.808;8.820;2023-06-22T08:24:47;4.83;;;4.23;;
70967;SDS011;58629;48.808;8.820;2023-06-22T08:27:13;7.53;;;4.45;;
70967;SDS011;58629;48.808;8.820;2023-06-22T08:29:39;6.57;;;4.03;;
70967;SDS011;58629;48.808;8.820;2023-06-22T08:32:07;6.45;;;4.40;;
70967;SDS011;58629;48.808;8.820;2023-06-22T08:34:36;5.93;;;3.95;;
70967;SDS011;58629;48.808;8.820;2023-06-22T08:37:01;5.07;;;3.80;;
70967;SDS011;58629;48.808;8.820;2023-06-22T08:39:31;6.28;;;3.80;;
70967;SDS011;58629;48.808;8.820;2023-06-22T08:41:56;6.30;;;4.07;;
70967;SDS011;58629;48.808;8.820;2023-06-22T08:44:22;9.73;;;5.13;;
70967;SDS011;58629;48.808;8.820;2023-06-22T08:46:47;10.87;;;5.10;;
70967;SDS011;58629;48.808;8.820;2023-06-22T08:49:12;6.80;;;4.23;;
70967;SDS011;58629;48.808;8.820;2023-06-22T08:51:38;5.18;;;4.00;;
70967;SDS011;58629;48.808;8.820;2023-06-22T08:54:03;4.33;;;3.63;;
70967;SDS011;58629;48.808;8.820;2023-06-22T08:56:29;4.43;;;3.70;;
70967;SDS011;58629;48.808;8.820;2023-06-22T08:58:54;4.57;;;3.77;;
70967;SDS011;58629;48.808;8.820;2023-06-22T09:01:20;6.70;;;4.20;;
70967;SDS011;58629;48.808;8.820;2023-06-22T09:03:47;8.70;;;4.70;;
70967;SDS011;58629;48.808;8.820;2023-06-22T09:06:20;6.18;;;4.22;;
70967;SDS011;58629;48.808;8.820;2023-06-22T09:08:46;4.75;;;3.90;;
70967;SDS011;58629;48.808;8.820;2023-06-22T09:11:12;5.80;;;4.10;;
70967;SDS011;58629;48.808;8.820;2023-06-22T09:13:38;7.57;;;4.03;;
70967;SDS011;58629;48.808;8.820;2023-06-22T09:16:03;6.80;;;4.13;;
70967;SDS011;58629;48.808;8.820;2023-06-22T09:18:29;5.90;;;3.85;;
70967;SDS011;58629;48.808;8.820;2023-06-22T09:20:55;5.03;;;4.33;;
70967;SDS011;58629;48.808;8.820;2023-06-22T09:23:20;5.47;;;4.23;;
70967;SDS011;58629;48.808;8.820;2023-06-22T09:25:45;7.20;;;4.80;;
70967;SDS011;58629;48.808;8.820;2023-06-22T09:28:12;5.30;;;4.15;;
70967;SDS011;58629;48.808;8.820;2023-06-22T09:30:39;5.93;;;3.95;;
70967;SDS011;58629;48.808;8.820;2023-06-22T09:33:04;6.80;;;4.67;;
70967;SDS011;58629;48.808;8.820;2023-06-22T09:35:29;8.00;;;4.80;;
70967;SDS011;58629;48.808;8.820;2023-06-22T09:37:55;7.07;;;4.80;;
70967;SDS011;58629;48.808;8.820;2023-06-22T09:40:20;11.40;;;5.45;;
70967;SDS011;58629;48.808;8.820;2023-06-22T09:42:45;6.30;;;4.50;;
70967;SDS011;58629;48.808;8.820;2023-06-22T09:45:11;8.60;;;5.10;;
70967;SDS011;58629;48.808;8.820;2023-06-22T09:47:36;7.67;;;4.70;;
70967;SDS011;58629;48.808;8.820;2023-06-22T09:50:01;5.97;;;4.40;;
70967;SDS011;58629;48.808;8.820;2023-06-22T09:52:27;4.97;;;4.10;;
70967;SDS011;58629;48.808;8.820;2023-06-22T09:54:52;8.25;;;4.50;;
70967;SDS011;58629;48.808;8.820;2023-06-22T09:57:17;6.20;;;4.30;;
70967;SDS011;58629;48.808;8.820;2023-06-22T09:59:43;6.17;;;4.40;;
70967;SDS011;58629;48.808;8.820;2023-06-22T10:02:08;6.53;;;4.43;;
70967;SDS011;58629;48.808;8.820;2023-06-22T10:04:34;4.83;;;4.20;;
70967;SDS011;58629;48.808;8.820;2023-06-22T10:07:00;4.38;;;3.72;;
70967;SDS011;58629;48.808;8.820;2023-06-22T10:09:26;4.60;;;3.70;;
70967;SDS011;58629;48.808;8.820;2023-06-22T10:11:51;4.73;;;3.87;;
70967;SDS011;58629;48.808;8.820;2023-06-22T10:14:16;5.77;;;3.90;;
70967;SDS011;58629;48.808;8.820;2023-06-22T10:16:42;6.03;;;4.37;;
70967;SDS011;58629;48.808;8.820;2023-06-22T10:19:07;6.93;;;4.20;;
70967;SDS011;58629;48.808;8.820;2023-06-22T10:21:33;5.22;;;4.05;;
70967;SDS011;58629;48.808;8.820;2023-06-22T10:23:59;4.30;;;3.90;;
70967;SDS011;58629;48.808;8.820;2023-06-22T10:26:30;7.50;;;4.70;;
70967;SDS011;58629;48.808;8.820;2023-06-22T10:28:56;5.45;;;4.10;;
70967;SDS011;58629;48.808;8.820;2023-06-22T10:31:22;11.70;;;5.47;;
70967;SDS011;58629;48.808;8.820;2023-06-22T10:33:47;6.43;;;4.70;;
70967;SDS011;58629;48.808;8.820;2023-06-22T10:36:14;7.05;;;4.90;;
70967;SDS011;58629;48.808;8.820;2023-06-22T10:38:39;8.13;;;4.87;;
70967;SDS011;58629;48.808;8.820;2023-06-22T10:41:05;6.40;;;4.63;;
70967;SDS011;58629;48.808;8.820;2023-06-22T10:43:30;6.67;;;4.67;;
70967;SDS011;58629;48.808;8.820;2023-06-22T10:45:55;5.93;;;4.60;;
70967;SDS011;58629;48.808;8.820;2023-06-22T10:48:21;10.07;;;5.72;;
70967;SDS011;58629;48.808;8.820;2023-06-22T10:50:46;7.90;;;5.03;;
70967;SDS011;58629;48.808;8.820;2023-06-22T10:53:12;5.37;;;4.47;;
70967;SDS011;58629;48.808;8.820;2023-06-22T10:55:37;5.80;;;4.47;;
70967;SDS011;58629;48.808;8.820;2023-06-22T10:58:02;5.17;;;3.83;;
70967;SDS011;58629;48.808;8.820;2023-06-22T11:00:28;5.10;;;3.83;;
70967;SDS011;58629;48.808;8.820;2023-06-22T11:02:53;13.07;;;5.40;;
70967;SDS011;58629;48.808;8.820;2023-06-22T11:05:19;6.00;;;5.10;;
70967;SDS011;58629;48.808;8.820;2023-06-22T11:07:44;8.30;;;5.20;;
70967;SDS011;58629;48.808;8.820;2023-06-22T11:10:10;9.05;;;5.28;;
70967;SDS011;58629;48.808;8.820;2023-06-22T11:12:36;5.67;;;4.47;;
70967;SDS011;58629;48.808;8.820;2023-06-22T11:15:01;5.93;;;4.70;;
70967;SDS011;58629;48.808;8.820;2023-06-22T11:17:27;6.00;;;4.33;;
70967;SDS011;58629;48.808;8.820;2023-06-22T11:19:52;6.73;;;4.23;;
70967;SDS011;58629;48.808;8.820;2023-06-22T11:22:17;5.37;;;4.00;;
70967;SDS011;58629;48.808;8.820;2023-06-22T11:24:43;6.20;;;4.20;;
70967;SDS011;58629;48.808;8.820;2023-06-22T11:27:08;5.67;;;4.30;;
70967;SDS011;58629;48.808;8.820;2023-06-22T11:29:33;7.13;;;4.50;;
70967;SDS011;58629;48.808;8.820;2023-06-22T11:31:59;5.47;;;4.07;;
70967;SDS011;58629;48.808;8.820;2023-06-22T11:34:24;5.37;;;3.73;;
70967;SDS011;58629;48.808;8.820;2023-06-22T11:36:49;5.90;;;4.00;;
70967;SDS011;58629;48.808;8.820;2023-06-22T11:39:15;4.53;;;3.77;;
70967;SDS011;58629;48.808;8.820;2023-06-22T11:41:40;3.78;;;3.38;;
70967;SDS011;58629;48.808;8.820;2023-06-22T11:44:06;3.47;;;3.13;;
70967;SDS011;58629;48.808;8.820;2023-06-22T11:46:32;3.47;;;3.17;;
70967;SDS011;58629;48.808;8.820;2023-06-22T11:48:58;3.30;;;3.00;;
70967;SDS011;58629;48.808;8.820;2023-06-22T11:51:23;8.70;;;5.10;;
70967;SDS011;58629;48.808;8.820;2023-06-22T11:53:48;6.53;;;3.80;;
70967;SDS011;58629;48.808;8.820;2023-06-22T11:56:14;5.43;;;3.80;;
70967;SDS011;58629;48.808;8.820;2023-06-22T11:58:39;4.60;;;3.50;;
70967;SDS011;58629;48.808;8.820;2023-06-22T12:01:04;4.60;;;3.70;;
70967;SDS011;58629;48.808;8.820;2023-06-22T12:03:30;4.13;;;3.27;;
70967;SDS011;58629;48.808;8.820;2023-06-22T12:05:55;3.30;;;3.00;;
70967;SDS011;58629;48.808;8.820;2023-06-22T12:08:21;3.45;;;2.92;;
70967;SDS011;58629;48.808;8.820;2023-06-22T12:10:47;3.23;;;2.93;;
70967;SDS011;58629;48.808;8.820;2023-06-22T12:13:12;4.03;;;3.42;;
70967;SDS011;58629;48.808;8.820;2023-06-22T12:15:38;4.60;;;3.20;;
70967;SDS011;58629;48.808;8.820;2023-06-22T12:18:03;4.33;;;3.20;;
70967;SDS011;58629;48.808;8.820;2023-06-22T12:20:28;4.03;;;3.33;;
70967;SDS011;58629;48.808;8.820;2023-06-22T12:22:54;8.02;;;4.93;;
70967;SDS011;58629;48.808;8.820;2023-06-22T12:25:21;4.03;;;3.40;;
70967;SDS011;58629;48.808;8.820;2023-06-22T12:27:47;5.97;;;4.03;;
70967;SDS011;58629;48.808;8.820;2023-06-22T12:30:12;4.77;;;4.10;;
70967;SDS011;58629;48.808;8.820;2023-06-22T12:32:37;5.77;;;4.07;;
70967;SDS011;58629;48.808;8.820;2023-06-22T12:35:03;4.27;;;3.80;;
70967;SDS011;58629;48.808;8.820;2023-06-22T12:37:29;8.57;;;4.70;;
70967;SDS011;58629;48.808;8.820;2023-06-22T12:39:56;6.30;;;4.13;;
70967;SDS011;58629;48.808;8.820;2023-06-22T12:42:22;5.20;;;3.77;;
70967;SDS011;58629;48.808;8.820;2023-06-22T12:44:47;4.00;;;3.60;;
70967;SDS011;58629;48.808;8.820;2023-06-22T12:47:12;3.83;;;3.43;;
70967;SDS011;58629;48.808;8.820;2023-06-22T12:49:38;6.03;;;4.20;;
70967;SDS011;58629;48.808;8.820;2023-06-22T12:52:08;4.93;;;4.13;;
70967;SDS011;58629;48.808;8.820;2023-06-22T12:54:34;4.90;;;4.10;;
70967;SDS011;58629;48.808;8.820;2023-06-22T12:57:00;6.87;;;4.23;;
70967;SDS011;58629;48.808;8.820;2023-06-22T12:59:26;4.55;;;3.85;;
70967;SDS011;58629;48.808;8.820;2023-06-22T13:01:51;6.73;;;4.00;;
70967;SDS011;58629;48.808;8.820;2023-06-22T13:04:17;4.60;;;3.60;;
70967;SDS011;58629;48.808;8.820;2023-06-22T13:06:43;4.03;;;3.63;;
70967;SDS011;58629;48.808;8.820;2023-06-22T13:09:12;6.07;;;3.75;;
70967;SDS011;58629;48.808;8.820;2023-06-22T13:11:37;6.80;;;4.07;;
70967;SDS011;58629;48.808;8.820;2023-06-22T13:14:03;4.57;;;3.93;;
70967;SDS011;58629;48.808;8.820;2023-06-22T13:16:28;4.87;;;3.47;;
70967;SDS011;58629;48.808;8.820;2023-06-22T13:18:53;5.80;;;3.70;;
70967;SDS011;58629;48.808;8.820;2023-06-22T13:21:18;6.80;;;4.70;;
70967;SDS011;58629;48.808;8.820;2023-06-22T13:23:44;7.13;;;5.00;;
70967;SDS011;58629;48.808;8.820;2023-06-22T13:26:09;8.63;;;5.50;;
70967;SDS011;58629;48.808;8.820;2023-06-22T13:28:34;6.10;;;5.03;;
70967;SDS011;58629;48.808;8.820;2023-06-22T13:31:00;7.83;;;5.10;;
70967;SDS011;58629;48.808;8.820;2023-06-22T13:33:25;7.30;;;5.00;;
70967;SDS011;58629;48.808;8.820;2023-06-22T13:35:51;6.75;;;4.75;;
70967;SDS011;58629;48.808;8.820;2023-06-22T13:38:16;6.63;;;4.80;;
70967;SDS011;58629;48.808;8.820;2023-06-22T13:40:42;5.88;;;4.45;;
70967;SDS011;58629;48.808;8.820;2023-06-22T13:43:08;7.63;;;4.60;;
70967;SDS011;58629;48.808;8.820;2023-06-22T13:45:33;5.63;;;4.30;;
70967;SDS011;58629;48.808;8.820;2023-06-22T13:47:58;9.20;;;5.13;;
70967;SDS011;58629;48.808;8.820;2023-06-22T13:50:24;5.47;;;4.47;;
70967;SDS011;58629;48.808;8.820;2023-06-22T13:52:49;8.93;;;5.00;;
70967;SDS011;58629;48.808;8.820;2023-06-22T13:55:15;8.73;;;4.67;;
70967;SDS011;58629;48.808;8.820;2023-06-22T13:57:41;10.27;;;4.85;;
70967;SDS011;58629;48.808;8.820;2023-06-22T14:00:08;10.83;;;4.20;;
70967;SDS011;58629;48.808;8.820;2023-06-22T14:02:34;7.15;;;3.70;;
70967;SDS011;58629;48.808;8.820;2023-06-22T14:04:59;11.43;;;4.10;;
70967;SDS011;58629;48.808;8.820;2023-06-22T14:07:25;8.63;;;4.00;;
70967;SDS011;58629;48.808;8.820;2023-06-22T14:09:50;7.87;;;3.73;;
70967;SDS011;58629;48.808;8.820;2023-06-22T14:12:16;10.77;;;3.40;;
70967;SDS011;58629;48.808;8.820;2023-06-22T14:14:42;9.98;;;3.00;;
70967;SDS011;58629;48.808;8.820;2023-06-22T14:17:08;9.45;;;3.20;;
70967;SDS011;58629;48.808;8.820;2023-06-22T14:19:34;11.20;;;3.60;;
70967;SDS011;58629;48.808;8.820;2023-06-22T14:21:59;9.90;;;3.20;;
70967;SDS011;58629;48.808;8.820;2023-06-22T14:24:24;6.60;;;2.90;;
70967;SDS011;58629;48.808;8.820;2023-06-22T14:26:50;12.60;;;3.60;;
70967;SDS011;58629;48.808;8.820;2023-06-22T14:29:15;9.55;;;3.17;;
70967;SDS011;58629;48.808;8.820;2023-06-22T14:31:44;8.37;;;3.50;;
70967;SDS011;58629;48.808;8.820;2023-06-22T14:34:10;6.63;;;2.90;;
70967;SDS011;58629;48.808;8.820;2023-06-22T14:36:35;5.33;;;2.77;;
70967;SDS011;58629;48.808;8.820;2023-06-22T14:39:01;8.90;;;3.07;;
70967;SDS011;58629;48.808;8.820;2023-06-22T14:41:26;6.70;;;2.77;;
70967;SDS011;58629;48.808;8.820;2023-06-22T14:43:51;7.47;;;3.07;;
70967;SDS011;58629;48.808;8.820;2023-06-22T14:46:20;7.47;;;2.90;;
70967;SDS011;58629;48.808;8.820;2023-06-22T14:48:45;8.13;;;2.90;;